Time;durP1;ratioP1;P1;durP2;ratioP2;P2;SDS_P1;SDS_P2;PMS_P1;PMS_P2;Temp;Humidity;BMP_temperature;BMP_pressure;BME280_temperature;BME280_humidity;BME280_pressure;Samples;Min_cycle;Max_cycle;Signal;HPM_P1;HPM_P2
2022/10/20 00:00:53;;;;;;;2.85;2.53;;;9.60;99.90;;;;;;5071683;28;20241;-88
2022/10/20 00:03:57;;;;;;;2.28;2.05;;;9.50;99.90;;;;;;5056312;28;20843;-88
2022/10/20 00:06:59;;;;;;;2.28;2.08;;;9.40;99.90;;;;;;5072194;28;20204;-88
2022/10/20 00:13:13;;;;;;;2.30;2.10;;;9.30;99.90;;;;;;5068352;28;20213;-87
2022/10/20 00:15:49;;;;;;;2.35;2.20;;;9.30;99.90;;;;;;5071801;28;20216;-89
2022/10/20 00:18:19;;;;;;;2.60;2.40;;;9.30;99.90;;;;;;5072920;28;20208;-90
2022/10/20 00:20:49;;;;;;;2.47;2.28;;;9.30;99.90;;;;;;5075687;28;20209;-90
2022/10/20 00:23:19;;;;;;;2.60;2.40;;;9.20;99.90;;;;;;5075546;28;20217;-89
2022/10/20 00:26:04;;;;;;;5.47;3.28;;;9.30;99.90;;;;;;5075316;28;20217;-90
2022/10/20 00:28:37;;;;;;;2.70;2.40;;;9.30;99.90;;;;;;5075096;28;20224;-89
2022/10/20 00:31:07;;;;;;;2.47;2.30;;;9.30;99.90;;;;;;5075046;28;20201;-89
2022/10/20 00:33:37;;;;;;;2.50;2.30;;;9.30;99.90;;;;;;5075657;28;20213;-90
2022/10/20 00:36:08;;;;;;;2.55;2.35;;;9.30;99.90;;;;;;5075397;28;20205;-90
2022/10/20 00:38:39;;;;;;;3.05;2.72;;;9.30;99.90;;;;;;5074951;28;20229;-89
2022/10/20 00:41:13;;;;;;;3.13;2.58;;;9.30;99.90;;;;;;5075505;28;20263;-90
2022/10/20 00:43:48;;;;;;;3.47;2.60;;;9.30;99.90;;;;;;5075167;28;20208;-89
2022/10/20 00:46:36;;;;;;;2.10;2.00;;;9.30;99.90;;;;;;5075374;28;20216;-87
2022/10/20 00:52:48;;;;;;;2.75;2.55;;;9.20;99.90;;;;;;5074790;28;20197;-87
2022/10/20 00:55:35;;;;;;;2.83;2.60;;;9.20;99.90;;;;;;5074669;28;20216;-87
2022/10/20 01:01:12;;;;;;;4.55;2.78;;;9.10;99.90;;;;;;5063251;22;20287;-90
2022/10/20 01:07:39;;;;;;;2.42;2.22;;;9.10;99.90;;;;;;4916615;29;20199;-89
2022/10/20 01:22:54;;;;;;;3.53;2.88;;;8.70;99.90;;;;;;4700611;30;20232;-90
2022/10/20 01:45:14;;;;;;;2.45;2.25;;;8.70;99.90;;;;;;4733569;30;20350;-89
2022/10/20 01:49:07;;;;;;;3.72;2.63;;;8.70;99.90;;;;;;4745812;30;20223;-89
2022/10/20 02:32:48;;;;;;;2.90;2.63;;;8.40;99.90;;;;;;4937994;28;20203;-87
2022/10/20 02:42:16;;;;;;;2.28;2.17;;;8.30;99.90;;;;;;4984566;28;20210;-87
2022/10/20 02:44:59;;;;;;;1.92;1.83;;;8.30;99.90;;;;;;4915858;28;20206;-87
2022/10/20 02:47:57;;;;;;;;;;;;;;;;;;;;;
2022/10/20 02:51:22;;;;;;;3.08;2.78;;;8.20;99.90;;;;;;4976672;28;20371;-87
2022/10/20 02:57:52;;;;;;;13.38;2.00;;;8.20;99.90;;;;;;4898168;29;20205;-87
2022/10/20 03:01:16;;;;;;;2.30;1.90;;;8.10;99.90;;;;;;5028875;28;20210;-87
2022/10/20 03:18:06;;;;;;;4.80;2.75;;;8.20;99.90;;;;;;6229337;22;175446;-88
2022/10/20 03:24:28;;;;;;;2.60;2.40;;;8.00;99.90;;;;;;6044096;23;20177;-89
2022/10/20 03:30:38;;;;;;;3.05;2.75;;;8.00;99.90;;;;;;6161874;23;20206;-88
2022/10/20 03:33:55;;;;;;;3.03;2.75;;;8.00;99.90;;;;;;6163193;23;20171;-88
2022/10/20 03:36:55;;;;;;;2.13;1.92;;;8.00;99.90;;;;;;6160790;23;20171;-88
2022/10/20 03:46:47;;;;;;;10.93;2.95;;;7.80;99.90;;;;;;6163740;23;20261;-87
2022/10/20 03:49:17;;;;;;;3.90;3.53;;;7.80;99.90;;;;;;6162770;23;20229;-87
2022/10/20 03:51:57;;;;;;;2.95;2.30;;;7.70;99.90;;;;;;6163260;23;20175;-87
2022/10/20 03:55:28;;;;;;;2.47;2.22;;;7.70;99.90;;;;;;6147255;23;20179;-87
2022/10/20 03:58:47;;;;;;;8.63;2.80;;;7.70;99.90;;;;;;6161289;23;20259;-86
2022/10/20 04:08:30;;;;;;;2.60;2.40;;;7.60;99.90;;;;;;6104540;23;20179;-86
2022/10/20 04:11:57;;;;;;;2.97;2.10;;;7.50;99.90;;;;;;6130056;23;20172;-86
2022/10/20 04:15:26;;;;;;;4.38;3.38;;;7.40;99.90;;;;;;6127091;23;20187;-87
2022/10/20 04:18:07;;;;;;;2.63;2.42;;;7.30;99.90;;;;;;6109490;23;20224;-88
2022/10/20 04:20:37;;;;;;;3.28;2.35;;;7.30;99.90;;;;;;6124253;23;20183;-89
2022/10/20 04:23:13;;;;;;;2.40;2.20;;;7.30;99.90;;;;;;6150771;23;20171;-89
2022/10/20 04:25:46;;;;;;;2.78;2.58;;;7.30;99.90;;;;;;6156502;23;20194;-88
2022/10/20 04:28:20;;;;;;;5.65;2.50;;;7.40;99.90;;;;;;6156344;23;20167;-89
2022/10/20 04:30:51;;;;;;;3.47;2.88;;;7.40;99.90;;;;;;6156542;23;20209;-88
2022/10/20 04:33:24;;;;;;;2.47;2.28;;;7.40;99.90;;;;;;6155889;23;20175;-88
2022/10/20 04:35:58;;;;;;;2.78;2.55;;;7.40;99.90;;;;;;6156299;23;20160;-88
2022/10/20 04:38:33;;;;;;;3.35;2.58;;;7.50;99.90;;;;;;6155565;23;20198;-88
2022/10/20 04:41:06;;;;;;;2.85;2.65;;;7.50;99.90;;;;;;6156394;23;20171;-89
2022/10/20 04:43:35;;;;;;;2.97;2.55;;;7.50;99.90;;;;;;6156539;23;20250;-89
2022/10/20 04:46:09;;;;;;;5.05;3.50;;;7.40;99.90;;;;;;6156081;23;20191;-89
2022/10/20 04:48:46;;;;;;;3.58;2.80;;;7.40;99.90;;;;;;6155696;23;20202;-88
2022/10/20 04:55:22;;;;;;;3.83;2.83;;;7.40;99.90;;;;;;6091596;23;20186;-86
2022/10/20 04:57:54;;;;;;;2.92;2.70;;;7.30;99.90;;;;;;6156069;23;20178;-86
2022/10/20 05:00:32;;;;;;;2.97;2.72;;;7.20;99.90;;;;;;6155693;23;20191;-87
2022/10/20 05:55:44;;;;;;;5.03;3.70;;;7.20;99.90;;;;;;6299237;22;20163;-87
2022/10/20 06:03:15;;;;;;;3.78;3.08;;;7.20;99.90;;;;;;6156341;22;20172;-86
2022/10/20 06:06:18;;;;;;;4.30;3.08;;;7.10;99.90;;;;;;6313367;22;20170;-86
2022/10/20 06:09:04;;;;;;;5.28;3.67;;;7.10;99.90;;;;;;6314728;22;20217;-86
2022/10/20 06:17:57;;;;;;;4.32;3.03;;;7.10;99.90;;;;;;6314601;22;20236;-86
2022/10/20 06:20:41;;;;;;;6.25;2.97;;;7.10;99.90;;;;;;6315312;22;20179;-86
2022/10/20 06:23:34;;;;;;;5.53;4.15;;;7.10;99.90;;;;;;6315126;22;20171;-86
2022/10/20 06:26:19;;;;;;;7.45;6.10;;;7.10;99.90;;;;;;6315052;22;20159;-86
2022/10/20 06:35:18;;;;;;;8.73;5.35;;;7.20;99.90;;;;;;6290969;22;20171;-87
2022/10/20 06:38:08;;;;;;;7.82;6.07;;;7.30;99.90;;;;;;6284031;22;20261;-86
2022/10/20 06:40:50;;;;;;;6.50;4.82;;;7.30;99.90;;;;;;6284172;22;20176;-86
2022/10/20 06:43:58;;;;;;;;;;;;;;;;;;;;;
2022/10/20 06:47:37;;;;;;;4.15;3.75;;;7.40;99.90;;;;;;6261166;22;20175;-86
2022/10/20 06:57:13;;;;;;;6.13;3.90;;;7.60;99.90;;;;;;6182913;23;20205;-87
2022/10/20 06:59:43;;;;;;;4.55;4.03;;;7.70;99.90;;;;;;6187795;22;20203;-88
2022/10/20 07:02:15;;;;;;;3.83;3.47;;;7.70;99.90;;;;;;6276922;22;20203;-89
2022/10/20 07:04:52;;;;;;;5.07;4.30;;;7.80;99.90;;;;;;6277008;22;20203;-88
2022/10/20 07:07:36;;;;;;;5.90;4.47;;;7.90;99.90;;;;;;6277199;22;20164;-88
2022/10/20 07:11:13;;;;;;;5.65;4.45;;;7.90;99.90;;;;;;6277107;22;20200;-88
2022/10/20 07:45:11;;;;;;;4.80;4.47;;;9.00;99.90;;;;;;5791804;24;20190;-87
2022/10/20 07:48:05;;;;;;;6.93;4.30;;;9.20;99.90;;;;;;6008605;23;20241;-86
2022/10/20 09:51:08;;;;;;;7.72;3.33;;;14.20;99.90;;;;;;6121748;23;20194;-87
2022/10/20 09:58:01;;;;;;;4.65;3.75;;;14.50;99.90;;;;;;6066076;23;20244;-87
2022/10/20 10:01:22;;;;;;;3.70;3.10;;;14.90;99.90;;;;;;6123281;23;20202;-88
2022/10/20 10:07:36;;;;;;;2.60;2.40;;;15.40;99.90;;;;;;6159582;23;20181;-87
2022/10/20 10:10:36;;;;;;;3.03;2.75;;;15.60;99.90;;;;;;6175274;23;20221;-87
2022/10/20 10:13:29;;;;;;;3.22;2.90;;;16.00;99.90;;;;;;6185001;23;20181;-87
2022/10/20 10:33:25;;;;;;;3.17;2.83;;;17.10;99.90;;;;;;6143566;23;20265;-86
2022/10/20 10:36:48;;;;;;;;;;;;;;;;;;;;;
2022/10/20 10:39:45;;;;;;;6.30;3.17;;;17.50;99.90;;;;;;6135915;23;20247;-86
2022/10/20 10:54:14;;;;;;;3.03;2.72;;;17.60;99.90;;;;;;5952227;24;20230;-87
2022/10/20 10:57:32;;;;;;;3.30;3.00;;;17.70;99.90;;;;;;6019663;23;20181;-86
2022/10/20 11:00:58;;;;;;;2.33;2.13;;;17.70;99.90;;;;;;6064419;23;20201;-87
2022/10/20 11:04:03;;;;;;;2.90;2.70;;;17.90;99.90;;;;;;6008245;23;20182;-87
2022/10/20 11:10:22;;;;;;;2.70;2.42;;;18.20;99.90;;;;;;6057329;23;20196;-87
2022/10/20 11:16:30;;;;;;;3.40;2.58;;;18.60;99.90;;;;;;6063710;23;20185;-87
2022/10/20 11:20:01;;;;;;;3.08;2.80;;;18.70;99.90;;;;;;6064945;23;20200;-87
2022/10/20 11:32:32;;;;;;;3.88;2.88;;;19.80;99.00;;;;;;6122302;23;20226;-87
2022/10/20 11:35:16;;;;;;;4.07;2.83;;;20.40;98.40;;;;;;6128269;23;20219;-87
2022/10/20 11:41:21;;;;;;;2.72;2.40;;;21.00;96.70;;;;;;6181377;23;20170;-87
2022/10/20 11:44:18;;;;;;;3.53;3.22;;;21.10;95.70;;;;;;6185118;23;20197;-86
2022/10/20 11:47:10;;;;;;;4.72;2.85;;;20.40;96.60;;;;;;6134442;23;20204;-87
2022/10/20 11:50:04;;;;;;;3.30;2.33;;;20.50;96.70;;;;;;6184301;23;20200;-87
2022/10/20 11:52:59;;;;;;;3.28;2.97;;;20.50;96.20;;;;;;6184877;23;20171;-87
2022/10/20 12:00:14;;;;;;;2.97;2.33;;;21.20;96.00;;;;;;6183725;23;20202;-86
2022/10/20 12:04:09;;;;;;;;;;;;;;;;;;;;;
2022/10/20 12:07:32;;;;;;;10.30;3.50;;;21.40;94.80;;;;;;6184690;23;20209;-86
2022/10/20 12:14:06;;;;;;;3.85;3.55;;;20.40;95.30;;;;;;6182324;23;20230;-87
2022/10/20 12:17:38;;;;;;;3.63;3.15;;;20.20;95.00;;;;;;6183949;23;20182;-86
2022/10/20 12:21:00;;;;;;;3.22;2.97;;;20.30;96.10;;;;;;6184270;23;20253;-87
2022/10/20 12:24:51;;;;;;;3.50;3.20;;;20.30;95.40;;;;;;6169518;23;20238;-87
2022/10/20 12:27:46;;;;;;;5.25;3.10;;;20.60;95.20;;;;;;6184728;23;20166;-87
2022/10/20 12:34:57;;;;;;;2.92;2.47;;;20.70;95.20;;;;;;6183072;23;20205;-87
2022/10/20 12:37:35;;;;;;;2.78;2.58;;;20.60;95.50;;;;;;6139488;23;20177;-87
2022/10/20 12:48:02;;;;;;;5.15;2.95;;;20.10;95.40;;;;;;6007377;23;20186;-87
2022/10/20 12:58:32;;;;;;;3.38;2.65;;;20.50;96.00;;;;;;5875983;23;20189;-89
2022/10/20 13:05:10;;;;;;;3.85;2.58;;;20.70;95.30;;;;;;6009112;23;20179;-88
2022/10/20 13:12:36;;;;;;;2.30;2.10;;;20.20;95.70;;;;;;5871140;24;20210;-87
2022/10/20 13:15:36;;;;;;;2.92;2.40;;;19.60;95.60;;;;;;5950950;24;20179;-87
2022/10/20 13:18:31;;;;;;;2.58;2.38;;;19.20;96.70;;;;;;6050158;23;20176;-87
2022/10/20 13:21:45;;;;;;;2.88;2.20;;;19.20;96.80;;;;;;6065486;23;20179;-87
2022/10/20 13:24:52;;;;;;;3.05;2.75;;;19.20;96.80;;;;;;6065635;23;20173;-87
2022/10/20 13:31:54;;;;;;;2.95;2.30;;;18.60;96.80;;;;;;6142568;23;20242;-88
2022/10/20 13:34:51;;;;;;;3.70;2.47;;;18.70;97.10;;;;;;6185535;23;20190;-89
2022/10/20 13:37:42;;;;;;;2.40;2.20;;;18.80;96.70;;;;;;6185605;23;20178;-88
2022/10/20 13:47:33;;;;;;;2.83;2.60;;;18.80;96.90;;;;;;6185702;23;20201;-86
2022/10/20 13:50:12;;;;;;;2.50;2.30;;;18.20;97.40;;;;;;6069255;23;20191;-89
2022/10/20 13:52:46;;;;;;;3.00;2.70;;;18.00;98.10;;;;;;6185945;23;20202;-88
2022/10/20 13:55:21;;;;;;;3.22;2.92;;;17.90;98.70;;;;;;6185648;23;20167;-89
2022/10/20 13:58:17;;;;;;;4.80;2.88;;;17.90;98.40;;;;;;6185323;23;20166;-86
2022/10/20 14:01:00;;;;;;;5.70;2.45;;;18.00;98.10;;;;;;6185702;23;20189;-89
2022/10/20 14:03:45;;;;;;;5.95;2.85;;;18.10;97.90;;;;;;6185395;23;20190;-87
2022/10/20 14:06:56;;;;;;;5.25;3.58;;;18.20;98.30;;;;;;6184064;23;20185;-87
2022/10/20 14:16:11;;;;;;;3.28;2.75;;;18.00;98.30;;;;;;6184767;23;20174;-87
2022/10/20 14:18:41;;;;;;;3.25;2.25;;;18.00;98.20;;;;;;6178800;23;20191;-89
2022/10/20 14:21:16;;;;;;;2.53;2.33;;;18.00;98.20;;;;;;6185567;23;20186;-89
2022/10/20 14:23:47;;;;;;;2.75;2.55;;;17.60;98.20;;;;;;6185608;23;20212;-89
2022/10/20 14:26:36;;;;;;;6.20;3.25;;;17.70;98.60;;;;;;6185686;23;20238;-86
2022/10/20 14:29:08;;;;;;;6.82;3.53;;;17.60;98.30;;;;;;6185559;23;20206;-86
2022/10/20 14:31:37;;;;;;;3.92;2.80;;;17.40;98.40;;;;;;6185396;23;20175;-89
2022/10/20 14:34:18;;;;;;;2.92;2.63;;;17.30;98.30;;;;;;6184919;23;20189;-89
2022/10/20 14:36:48;;;;;;;5.00;2.85;;;17.10;99.10;;;;;;6185192;23;20162;-89
2022/10/20 14:39:34;;;;;;;3.60;3.13;;;17.00;98.80;;;;;;6184985;23;20199;-89
2022/10/20 14:42:04;;;;;;;2.35;2.22;;;16.80;99.40;;;;;;6185411;23;20171;-89
2022/10/20 14:47:57;;;;;;;6.53;2.67;;;16.60;99.90;;;;;;6178877;23;20174;-87
2022/10/20 14:51:12;;;;;;;2.50;2.30;;;16.30;99.90;;;;;;6184390;23;20236;-87
2022/10/20 14:53:47;;;;;;;5.65;2.97;;;16.00;99.90;;;;;;6185166;23;20167;-89
2022/10/20 14:56:24;;;;;;;2.53;2.33;;;15.80;99.90;;;;;;6184949;23;20233;-88
2022/10/20 15:17:00;;;;;;;3.13;2.25;;;15.00;99.90;;;;;;6103629;23;20186;-88
2022/10/20 15:26:43;;;;;;;2.53;2.15;;;14.70;99.90;;;;;;6184726;23;20166;-87
2022/10/20 15:49:27;;;;;;;5.93;2.70;;;14.30;99.90;;;;;;6032976;23;20206;-87
2022/10/20 15:58:32;;;;;;;3.35;3.00;;;13.90;99.90;;;;;;6154671;23;20175;-87
2022/10/20 16:04:52;;;;;;;4.03;3.22;;;13.80;99.90;;;;;;6154106;23;20206;-87
2022/10/20 16:07:26;;;;;;;3.15;2.85;;;13.80;99.90;;;;;;6154028;23;20183;-88
2022/10/20 16:10:10;;;;;;;8.80;3.80;;;13.70;99.90;;;;;;6154797;23;20199;-88
2022/10/20 16:13:12;;;;;;;3.55;3.08;;;13.70;99.90;;;;;;6154676;23;20171;-87
2022/10/20 16:23:37;;;;;;;2.60;2.40;;;13.50;99.90;;;;;;6109985;23;20191;-87
2022/10/20 16:27:09;;;;;;;;;;;;;;;;;;;;;
2022/10/20 16:30:16;;;;;;;;;;;;;;;;;;;;;
2022/10/20 16:33:13;;;;;;;3.95;2.92;;;13.40;99.90;;;;;;6156018;23;20191;-86
2022/10/20 16:36:31;;;;;;;3.38;3.05;;;13.40;99.90;;;;;;6156736;23;20167;-87
2022/10/20 16:47:15;;;;;;;3.53;2.88;;;13.30;99.90;;;;;;6037341;23;20242;-87
2022/10/20 16:50:29;;;;;;;2.90;2.70;;;13.20;99.90;;;;;;6054267;23;20199;-87
2022/10/20 16:53:40;;;;;;;8.43;3.33;;;13.20;99.90;;;;;;6156270;23;20225;-87
2022/10/20 17:00:06;;;;;;;;;;;;;;;;;;;;;
2022/10/20 17:10:53;;;;;;;4.10;3.70;;;13.00;99.90;;;;;;6140659;23;20217;-87
2022/10/20 17:17:25;;;;;;;4.28;3.83;;;12.90;99.90;;;;;;6153850;23;20246;-86
2022/10/20 17:28:20;;;;;;;4.78;3.40;;;12.90;99.90;;;;;;6013038;23;20177;-87
2022/10/20 17:39:02;;;;;;;3.70;3.38;;;12.80;99.90;;;;;;5921172;24;20187;-88
2022/10/20 17:41:52;;;;;;;6.85;3.90;;;12.70;99.90;;;;;;5830966;24;20188;-87
2022/10/20 17:44:26;;;;;;;7.63;4.55;;;12.70;99.90;;;;;;6035330;23;20265;-87
2022/10/20 17:47:18;;;;;;;7.35;3.97;;;12.70;99.90;;;;;;6152963;23;20198;-88
2022/10/20 17:49:57;;;;;;;4.82;4.18;;;12.70;99.90;;;;;;6155110;23;20213;-87
2022/10/20 17:52:43;;;;;;;19.85;4.10;;;12.60;99.90;;;;;;6151351;23;20185;-88
2022/10/20 17:55:37;;;;;;;6.78;4.30;;;12.60;99.90;;;;;;6156022;23;20172;-87
2022/10/20 18:05:41;;;;;;;10.30;4.10;;;12.40;99.90;;;;;;6071512;23;20213;-87
2022/10/20 18:08:23;;;;;;;4.47;4.07;;;12.50;99.90;;;;;;6154754;23;20191;-90
2022/10/20 18:10:53;;;;;;;4.18;3.88;;;12.40;99.90;;;;;;6155483;23;20175;-89
2022/10/20 18:13:22;;;;;;;5.35;4.43;;;12.40;99.90;;;;;;6156143;23;20179;-89
2022/10/20 18:15:50;;;;;;;4.88;4.28;;;12.40;99.90;;;;;;6155475;23;20182;-88
2022/10/20 18:18:33;;;;;;;5.07;4.32;;;12.40;99.90;;;;;;6155650;23;20171;-87
2022/10/20 18:21:01;;;;;;;4.18;3.70;;;12.30;99.90;;;;;;6156063;23;20167;-89
2022/10/20 18:23:32;;;;;;;6.82;4.63;;;12.30;99.90;;;;;;6155632;23;20175;-90
2022/10/20 18:26:07;;;;;;;4.90;4.20;;;12.30;99.90;;;;;;6155822;23;20170;-89
2022/10/20 18:28:56;;;;;;;5.85;4.28;;;12.30;99.90;;;;;;6155730;23;20206;-86
2022/10/20 18:31:45;;;;;;;4.47;4.05;;;12.30;99.90;;;;;;6155612;23;20167;-87
2022/10/20 18:34:19;;;;;;;5.05;4.55;;;12.20;99.90;;;;;;6167657;23;20181;-89
2022/10/20 18:36:49;;;;;;;4.55;4.10;;;12.20;99.90;;;;;;6185157;23;20178;-88
2022/10/20 18:39:37;;;;;;;4.50;4.15;;;12.20;99.90;;;;;;6184688;23;20195;-88
2022/10/20 18:42:56;;;;;;;5.07;4.47;;;12.30;99.90;;;;;;6185092;23;20178;-85
2022/10/20 18:45:51;;;;;;;15.35;4.15;;;12.20;99.90;;;;;;6158743;23;20203;-88
2022/10/20 18:53:05;;;;;;;4.32;3.92;;;12.30;99.90;;;;;;6023294;23;20188;-86
2022/10/20 18:55:48;;;;;;;4.43;4.00;;;12.30;99.90;;;;;;6159294;23;20185;-85
2022/10/20 19:02:41;;;;;;;4.55;3.70;;;12.20;99.90;;;;;;6092268;23;20172;-86
2022/10/20 19:12:18;;;;;;;4.93;3.92;;;12.20;99.90;;;;;;6037068;23;20173;-86
2022/10/20 19:21:37;;;;;;;5.22;3.72;;;12.10;99.90;;;;;;5945368;24;20269;-86
2022/10/20 19:39:12;;;;;;;5.85;4.88;;;12.10;99.90;;;;;;5884850;24;20209;-86
2022/10/20 19:48:46;;;;;;;5.22;4.28;;;12.00;99.90;;;;;;5960204;23;20204;-86
2022/10/20 19:51:24;;;;;;;5.07;4.00;;;12.00;99.90;;;;;;6035993;23;20174;-86
2022/10/20 19:54:16;;;;;;;6.22;4.40;;;12.00;99.90;;;;;;6036030;23;20178;-86
2022/10/20 19:57:02;;;;;;;7.72;4.78;;;11.90;99.90;;;;;;6035743;23;20181;-86
2022/10/20 19:59:43;;;;;;;4.38;3.97;;;11.90;99.90;;;;;;6035568;23;20227;-86
2022/10/20 20:06:47;;;;;;;6.35;3.83;;;11.90;99.90;;;;;;5988407;23;20202;-86
2022/10/20 20:10:12;;;;;;;5.05;4.63;;;11.90;99.90;;;;;;5926845;23;20218;-86
2022/10/20 20:36:20;;;;;;;8.23;5.38;;;11.70;99.90;;;;;;6003016;23;20190;-86
2022/10/20 20:39:37;;;;;;;5.22;4.47;;;11.60;99.90;;;;;;5967565;23;20229;-86
2022/10/20 20:45:47;;;;;;;4.50;4.10;;;11.60;99.90;;;;;;5966671;24;20199;-86
2022/10/20 20:48:15;;;;;;;4.70;4.30;;;11.60;99.90;;;;;;5979217;24;20180;-88
2022/10/20 20:50:52;;;;;;;4.60;3.78;;;11.60;99.90;;;;;;6036857;23;20262;-88
2022/10/20 20:53:21;;;;;;;3.70;3.40;;;11.50;99.90;;;;;;6064679;23;20183;-87
2022/10/20 20:55:54;;;;;;;5.18;3.58;;;11.50;99.90;;;;;;6064844;23;20208;-87
2022/10/20 21:09:22;;;;;;;8.38;3.35;;;11.40;99.90;;;;;;5940517;24;20224;-85
2022/10/20 21:12:59;;;;;;;;;;;;;;;;;;;;;
2022/10/20 21:26:26;;;;;;;3.72;3.42;;;11.30;99.90;;;;;;5988745;23;20234;-86
2022/10/20 21:28:57;;;;;;;4.10;3.63;;;11.30;99.90;;;;;;6181507;23;20191;-88
2022/10/20 21:31:39;;;;;;;4.57;3.28;;;11.30;99.90;;;;;;6181285;23;20185;-85
2022/10/20 21:34:08;;;;;;;3.60;2.95;;;11.30;99.90;;;;;;6182399;23;20175;-87
2022/10/20 21:36:38;;;;;;;3.55;3.25;;;11.20;99.90;;;;;;6182933;23;20187;-88
2022/10/20 21:50:35;;;;;;;4.30;3.78;;;11.20;99.90;;;;;;6061404;23;20205;-88
2022/10/20 21:53:03;;;;;;;4.07;3.30;;;11.10;99.90;;;;;;6062854;23;20218;-88
2022/10/20 21:55:34;;;;;;;5.35;3.53;;;11.10;99.90;;;;;;6062397;23;20177;-88
2022/10/20 21:58:17;;;;;;;3.40;3.10;;;11.10;99.90;;;;;;6063276;23;20253;-88
2022/10/20 22:00:50;;;;;;;3.13;2.92;;;11.10;99.90;;;;;;6062472;23;20217;-88
2022/10/20 22:06:59;;;;;;;3.53;3.22;;;11.10;99.90;;;;;;5973442;24;20203;-87
2022/10/20 22:09:28;;;;;;;3.92;3.58;;;11.10;99.90;;;;;;5977267;24;20278;-88
2022/10/20 22:11:57;;;;;;;3.10;2.80;;;11.10;99.90;;;;;;6040888;23;20192;-88
2022/10/20 22:14:29;;;;;;;3.75;3.40;;;11.00;99.90;;;;;;6062425;23;20185;-88
2022/10/20 22:47:13;;;;;;;4.63;2.88;;;10.80;99.90;;;;;;5804226;24;20238;-89
2022/10/20 22:49:41;;;;;;;4.50;3.58;;;10.70;99.90;;;;;;5948947;24;20442;-89
2022/10/20 22:52:10;;;;;;;3.72;3.33;;;10.70;99.90;;;;;;6061016;23;20181;-88
2022/10/20 22:54:39;;;;;;;3.75;3.45;;;10.70;99.90;;;;;;6062744;23;20184;-89
2022/10/20 23:04:46;;;;;;;4.78;3.35;;;10.60;99.90;;;;;;5943136;23;20183;-87
